Time;durP1;ratioP1;P1;durP2;ratioP2;P2;SDS_P1;SDS_P2;PMS_P1;PMS_P2;Temp;Humidity;BMP_temperature;BMP_pressure;BME280_temperature;BME280_humidity;BME280_pressure;Samples;Min_cycle;Max_cycle;Signal;HPM_P1;HPM_P2
2020/12/15 00:00:21;;;;;;;25.63;13.57;;;;;;;3.55;85.12;101063.58;127788;1091;104512;-77
2020/12/15 00:02:58;;;;;;;25.13;11.63;;;;;;;3.59;84.99;101070.77;127801;1091;104461;-76
2020/12/15 00:05:27;;;;;;;23.73;11.53;;;;;;;3.58;84.67;101066.39;127764;1092;104477;-73
2020/12/15 00:07:56;;;;;;;25.23;12.23;;;;;;;3.58;84.72;101071.59;127623;1091;104472;-73
2020/12/15 00:10:25;;;;;;;24.77;12.47;;;;;;;3.58;84.11;101079.38;127756;1091;104423;-73
2020/12/15 00:12:54;;;;;;;24.03;12.13;;;;;;;3.58;84.62;101071.59;127819;1091;104416;-72
2020/12/15 00:15:23;;;;;;;25.30;11.80;;;;;;;3.58;85.06;101071.59;127795;1091;104484;-74
2020/12/15 00:17:52;;;;;;;24.50;12.63;;;;;;;3.57;84.04;101074.96;127657;1091;104525;-74
2020/12/15 00:20:21;;;;;;;26.63;12.47;;;;;;;3.57;84.95;101077.55;127734;1091;104407;-73
2020/12/15 00:22:53;;;;;;;23.17;11.70;;;;;;;3.58;84.65;101084.56;127802;1092;104414;-73
2020/12/15 00:25:22;;;;;;;22.43;11.10;;;;;;;3.58;84.20;101087.16;127782;1091;104419;-74
2020/12/15 00:27:50;;;;;;;23.83;11.73;;;;;;;3.56;84.50;101086.12;127725;1091;104433;-75
2020/12/15 00:30:20;;;;;;;22.47;10.23;;;;;;;3.56;84.29;101086.12;127794;1091;104474;-74
2020/12/15 00:32:48;;;;;;;23.07;11.87;;;;;;;3.57;84.65;101076.66;127802;1091;104417;-72
2020/12/15 00:35:17;;;;;;;21.53;11.13;;;;;;;3.58;84.51;101076.77;127801;1091;104557;-72
2020/12/15 00:37:46;;;;;;;23.87;11.10;;;;;;;3.57;84.96;101082.75;127816;1092;104413;-72
2020/12/15 00:40:16;;;;;;;20.45;10.25;;;;;;;3.56;84.67;101086.12;127803;1092;104410;-72
2020/12/15 00:42:45;;;;;;;22.25;10.70;;;;;;;3.58;84.40;101081.04;127747;1091;104404;-73
2020/12/15 00:45:14;;;;;;;22.50;11.43;;;;;;;3.57;84.43;101077.55;127713;1091;104621;-72
2020/12/15 00:47:42;;;;;;;24.63;12.30;;;;;;;3.59;83.89;101080.27;127802;1091;104532;-72
2020/12/15 00:50:12;;;;;;;23.00;11.70;;;;;;;3.58;84.20;101075.85;127809;1091;104429;-72
2020/12/15 00:52:42;;;;;;;20.70;10.80;;;;;;;3.60;83.79;101076.89;127822;1091;104411;-72
2020/12/15 00:55:11;;;;;;;21.37;10.40;;;;;;;3.60;84.50;101076.89;127820;1091;104410;-72
2020/12/15 00:57:40;;;;;;;21.90;10.37;;;;;;;3.61;84.23;101073.48;127787;1092;104413;-73
2020/12/15 01:00:10;;;;;;;21.33;11.07;;;;;;;3.59;84.18;101062.98;127769;1092;104538;-76
2020/12/15 01:02:39;;;;;;;19.27;9.57;;;;;;;3.59;84.31;101072.48;127803;1091;105317;-73
2020/12/15 01:05:08;;;;;;;23.20;11.10;;;;;;;3.58;84.73;101071.59;127787;1091;104423;-74
2020/12/15 01:07:38;;;;;;;20.97;10.67;;;;;;;3.59;84.53;101065.58;127795;1091;104517;-76
2020/12/15 01:10:08;;;;;;;21.43;11.57;;;;;;;3.60;84.74;101061.31;127765;1091;104417;-75
2020/12/15 01:12:38;;;;;;;22.77;11.80;;;;;;;3.61;84.68;101057.91;127751;1092;104413;-75
2020/12/15 01:15:07;;;;;;;23.67;12.10;;;;;;;3.59;84.27;101062.98;127801;1091;104595;-72
2020/12/15 01:17:37;;;;;;;24.67;11.90;;;;;;;3.58;84.69;101066.39;127836;1091;104464;-72
2020/12/15 01:20:11;;;;;;;23.50;11.97;;;;;;;3.56;84.50;101067.95;127797;1091;104579;-73
2020/12/15 01:22:45;;;;;;;22.17;11.10;;;;;;;3.56;84.11;101060.17;127779;1091;104417;-75
2020/12/15 01:25:21;;;;;;;23.10;10.30;;;;;;;3.57;83.95;101061.09;127809;1091;104744;-74
2020/12/15 01:28:00;;;;;;;21.37;11.07;;;;;;;3.56;84.18;101060.17;127772;1092;104441;-74
2020/12/15 01:30:29;;;;;;;24.43;12.13;;;;;;;3.55;84.50;101055.79;127816;1091;104885;-73
2020/12/15 01:33:12;;;;;;;21.63;11.33;;;;;;;3.53;84.00;101053.86;127813;1091;104410;-73
2020/12/15 01:36:01;;;;;;;22.80;11.60;;;;;;;3.52;84.37;101058.16;127800;1091;104433;-73
2020/12/15 01:38:42;;;;;;;23.30;11.57;;;;;;;3.51;84.78;101051.16;127778;1092;104497;-74
2020/12/15 01:41:12;;;;;;;23.30;11.43;;;;;;;3.52;83.69;101047.78;127812;1091;104435;-75
2020/12/15 01:43:52;;;;;;;23.23;12.03;;;;;;;3.54;84.42;101050.48;127817;1091;104487;-74
2020/12/15 01:46:23;;;;;;;21.27;10.43;;;;;;;3.53;84.14;101046.97;127705;1091;104403;-74
2020/12/15 01:48:53;;;;;;;20.05;10.05;;;;;;;3.52;83.69;101050.37;127643;1091;104455;-74
2020/12/15 01:51:23;;;;;;;22.17;11.43;;;;;;;3.54;83.51;101048.78;127814;1091;104429;-74
2020/12/15 01:53:55;;;;;;;20.97;10.20;;;;;;;3.57;84.43;101056.80;127830;1092;104416;-74
2020/12/15 01:56:30;;;;;;;21.67;10.70;;;;;;;3.57;84.52;101053.30;127711;1092;104437;-73
2020/12/15 01:59:06;;;;;;;22.03;11.73;;;;;;;3.58;84.48;101055.09;127793;1091;104430;-75
2020/12/15 02:01:45;;;;;;;23.23;11.93;;;;;;;3.58;84.56;101057.69;127769;1091;104433;-74
2020/12/15 02:04:15;;;;;;;22.27;11.07;;;;;;;3.58;84.26;101048.23;127831;1091;104408;-74
2020/12/15 02:06:58;;;;;;;23.00;10.43;;;;;;;3.55;83.68;101053.20;127656;1092;104933;-74
2020/12/15 02:09:28;;;;;;;22.33;10.27;;;;;;;3.50;83.97;101054.53;127825;1091;103131;-74
2020/12/15 02:12:09;;;;;;;21.80;10.57;;;;;;;3.48;83.80;101058.72;127740;1092;104646;-74
2020/12/15 02:14:43;;;;;;;22.00;10.30;;;;;;;3.45;83.37;101060.20;127729;1091;104436;-77
2020/12/15 02:17:15;;;;;;;19.47;9.37;;;;;;;3.44;83.66;101064.46;127817;1091;104417;-73
2020/12/15 02:20:05;;;;;;;20.43;10.73;;;;;;;3.42;84.33;101071.23;127729;1091;104541;-73
2020/12/15 02:22:37;;;;;;;21.57;11.08;;;;;;;3.42;83.75;101066.05;127815;1091;104465;-77
2020/12/15 02:25:08;;;;;;;19.07;9.73;;;;;;;3.45;84.45;101074.06;127782;1091;104418;-75
2020/12/15 02:27:39;;;;;;;20.77;10.83;;;;;;;3.45;84.28;101074.06;127739;1091;104521;-74
2020/12/15 02:30:09;;;;;;;22.00;10.93;;;;;;;3.46;83.51;101070.69;127694;1091;104859;-75
2020/12/15 02:32:40;;;;;;;21.20;11.03;;;;;;;3.48;84.10;101076.88;127750;1092;104490;-76
2020/12/15 02:35:10;;;;;;;18.97;9.83;;;;;;;3.47;84.13;101085.44;127794;1091;104538;-74
2020/12/15 02:37:40;;;;;;;19.17;9.20;;;;;;;3.48;83.86;101076.88;127791;1091;104561;-73
2020/12/15 02:40:09;;;;;;;18.60;9.45;;;;;;;3.48;83.57;101084.66;127750;1091;104493;-74
2020/12/15 02:42:52;;;;;;;20.43;10.20;;;;;;;3.50;84.39;101085.67;127826;1091;104601;-73
2020/12/15 02:45:24;;;;;;;21.25;10.10;;;;;;;3.51;83.52;101081.41;127768;1092;104503;-74
2020/12/15 02:47:55;;;;;;;21.97;11.20;;;;;;;3.50;83.31;101079.59;127757;1091;104916;-74
2020/12/15 02:50:27;;;;;;;18.43;9.03;;;;;;;3.50;83.91;101085.67;127802;1091;104574;-75
2020/12/15 02:53:08;;;;;;;19.43;9.27;;;;;;;3.52;83.93;101089.30;127821;1092;104542;-74
2020/12/15 02:55:39;;;;;;;21.97;10.87;;;;;;;3.52;83.75;101089.30;127852;1091;104414;-73
2020/12/15 02:58:09;;;;;;;21.10;11.00;;;;;;;3.53;83.62;101083.30;127822;1091;104535;-73
2020/12/15 03:00:40;;;;;;;22.57;11.70;;;;;;;3.53;83.92;101075.52;127828;1092;104461;-74
2020/12/15 03:03:09;;;;;;;21.63;10.73;;;;;;;3.52;83.78;101076.33;127817;1091;104897;-73
2020/12/15 03:05:51;;;;;;;22.03;10.43;;;;;;;3.53;83.41;101087.59;127803;1091;104435;-73
2020/12/15 03:08:20;;;;;;;18.73;9.43;;;;;;;3.52;84.17;101090.97;127797;1091;104478;-73
2020/12/15 03:10:50;;;;;;;21.03;10.07;;;;;;;3.51;83.19;101082.30;127816;1091;104408;-74
2020/12/15 03:13:19;;;;;;;20.93;10.97;;;;;;;3.53;83.72;101080.70;127796;1092;104411;-74
2020/12/15 03:15:48;;;;;;;20.53;10.70;;;;;;;3.52;84.05;101096.16;127814;1092;104573;-74
2020/12/15 03:18:20;;;;;;;21.70;11.40;;;;;;;3.49;83.55;101099.45;127782;1092;104554;-73
2020/12/15 03:20:52;;;;;;;21.40;11.17;;;;;;;3.50;83.16;101100.34;127785;1092;104432;-75
2020/12/15 03:23:23;;;;;;;20.87;10.30;;;;;;;3.48;83.91;101092.45;127769;1092;104888;-74
2020/12/15 03:25:53;;;;;;;21.03;10.00;;;;;;;3.49;83.81;101094.27;127780;1091;104417;-74
2020/12/15 03:28:23;;;;;;;25.03;11.50;;;;;;;3.50;83.21;101102.94;127797;1091;104410;-74
2020/12/15 03:30:53;;;;;;;22.87;11.30;;;;;;;3.51;83.92;101108.24;127778;1092;104500;-73
2020/12/15 03:33:23;;;;;;;23.73;11.77;;;;;;;3.50;83.61;101109.02;127798;1091;104535;-73
2020/12/15 03:35:53;;;;;;;21.73;10.97;;;;;;;3.51;84.41;101102.16;127811;1091;103970;-72
2020/12/15 03:38:24;;;;;;;21.80;10.63;;;;;;;3.49;83.25;101103.72;127810;1091;104452;-72
2020/12/15 03:40:56;;;;;;;21.63;10.20;;;;;;;3.51;83.53;101118.63;127792;1092;104538;-72
2020/12/15 03:43:35;;;;;;;19.40;9.53;;;;;;;3.51;83.90;101112.55;127791;1091;104423;-73
2020/12/15 03:46:22;;;;;;;23.50;11.67;;;;;;;3.50;83.15;101129.78;127832;1091;104900;-74
2020/12/15 03:48:53;;;;;;;24.83;12.63;;;;;;;3.48;83.81;101123.58;127812;1091;104484;-74
2020/12/15 03:51:22;;;;;;;29.60;15.20;;;;;;;3.44;83.75;101131.03;127820;1091;104859;-74
2020/12/15 03:54:12;;;;;;;37.13;19.57;;;;;;;3.42;84.16;101134.40;127809;1092;104429;-74
2020/12/15 03:56:54;;;;;;;34.43;17.73;;;;;;;3.44;83.51;101137.11;127780;1091;104416;-74
2020/12/15 03:59:23;;;;;;;35.90;17.40;;;;;;;3.45;84.19;101141.52;127814;1091;104410;-73
2020/12/15 04:01:52;;;;;;;34.87;17.10;;;;;;;3.46;83.91;101137.22;127799;1091;104474;-73
2020/12/15 04:04:21;;;;;;;32.33;15.47;;;;;;;3.51;83.97;101141.09;127857;1091;104538;-73
2020/12/15 04:06:50;;;;;;;32.40;15.20;;;;;;;3.52;83.58;101146.39;127786;1091;104455;-74
2020/12/15 04:09:25;;;;;;;28.47;13.47;;;;;;;3.52;84.12;101146.39;127759;1091;104410;-76
2020/12/15 04:11:54;;;;;;;30.80;14.97;;;;;;;3.48;83.85;101149.53;127696;1092;104449;-74
2020/12/15 04:14:24;;;;;;;28.47;14.17;;;;;;;3.46;83.37;101148.53;127658;1091;105726;-74
2020/12/15 04:16:53;;;;;;;29.00;13.10;;;;;;;3.46;83.71;101152.79;127731;1091;104407;-73
2020/12/15 04:19:22;;;;;;;28.57;13.97;;;;;;;3.45;83.40;101156.20;127695;1091;104417;-73
2020/12/15 04:21:52;;;;;;;28.47;13.63;;;;;;;3.44;83.71;101156.97;127730;1091;104535;-74
2020/12/15 04:24:24;;;;;;;26.97;14.45;;;;;;;3.45;83.01;101164.88;127774;1091;104432;-75
2020/12/15 04:27:07;;;;;;;30.13;15.67;;;;;;;3.45;84.05;101161.38;127809;1091;104590;-74
2020/12/15 04:29:38;;;;;;;26.50;13.80;;;;;;;3.44;83.57;101163.05;127803;1091;104486;-71
2020/12/15 04:32:10;;;;;;;30.37;16.80;;;;;;;3.41;83.91;101168.94;127799;1091;104483;-72
2020/12/15 04:34:53;;;;;;;39.00;20.50;;;;;;;3.41;83.88;101168.02;127751;1091;105052;-73
2020/12/15 04:37:22;;;;;;;38.20;19.30;;;;;;;3.44;83.38;101165.65;127797;1092;104404;-73
2020/12/15 04:39:57;;;;;;;31.67;16.87;;;;;;;3.44;83.53;101170.84;127793;1091;104413;-73
2020/12/15 04:42:30;;;;;;;33.23;17.40;;;;;;;3.42;83.64;101178.50;127828;1091;104541;-73
2020/12/15 04:45:00;;;;;;;29.90;14.03;;;;;;;3.41;83.12;101178.39;127761;1091;104949;-73
2020/12/15 04:47:36;;;;;;;30.60;15.03;;;;;;;3.40;83.72;101187.88;127740;1092;104548;-72
2020/12/15 04:50:09;;;;;;;30.37;15.37;;;;;;;3.41;83.66;101194.88;127781;1091;104525;-72
2020/12/15 04:52:56;;;;;;;25.53;13.93;;;;;;;3.46;83.86;101191.70;127749;1092;104586;-72
2020/12/15 04:55:49;;;;;;;30.73;15.93;;;;;;;3.49;83.87;101191.94;127801;1091;104868;-74
2020/12/15 04:58:23;;;;;;;28.30;15.90;;;;;;;3.51;83.82;101196.47;127827;1091;103291;-72
2020/12/15 05:00:53;;;;;;;25.82;12.73;;;;;;;3.48;84.02;101198.83;127786;1092;104442;-72
2020/12/15 05:03:46;;;;;;;24.80;12.90;;;;;;;3.45;82.81;101201.20;127731;1092;104439;-72
2020/12/15 05:06:17;;;;;;;26.83;12.47;;;;;;;3.45;83.33;101196.01;127766;1092;104414;-73
2020/12/15 05:08:50;;;;;;;23.67;12.03;;;;;;;3.46;82.97;101196.90;127733;1092;104534;-74
2020/12/15 05:11:21;;;;;;;24.67;12.17;;;;;;;3.47;83.54;101202.20;127781;1092;104500;-73
2020/12/15 05:14:03;;;;;;;22.47;12.33;;;;;;;3.46;82.89;101202.09;127725;1091;104407;-72
2020/12/15 05:16:38;;;;;;;26.27;13.50;;;;;;;3.46;83.21;101207.28;127752;1091;104497;-75
2020/12/15 05:19:23;;;;;;;22.73;11.27;;;;;;;3.45;83.69;101208.98;127741;1091;104494;-73
2020/12/15 05:22:02;;;;;;;23.13;11.93;;;;;;;3.42;82.72;101209.64;127782;1091;104433;-71
2020/12/15 05:24:38;;;;;;;21.63;10.43;;;;;;;3.40;82.60;101213.82;127768;1091;104471;-72
2020/12/15 05:27:17;;;;;;;21.40;9.65;;;;;;;3.39;83.14;101214.59;127773;1091;104654;-72
2020/12/15 05:30:06;;;;;;;20.40;10.10;;;;;;;3.40;83.05;101210.34;127780;1092;104407;-73
2020/12/15 05:32:53;;;;;;;26.30;13.00;;;;;;;3.40;83.34;101215.52;127713;1091;104445;-72
2020/12/15 05:35:36;;;;;;;27.13;13.97;;;;;;;3.38;82.72;101225.78;127680;1091;104916;-74
2020/12/15 05:38:23;;;;;;;24.80;13.47;;;;;;;3.38;83.70;101225.78;127727;1091;104515;-75
2020/12/15 05:41:15;;;;;;;24.43;13.10;;;;;;;3.37;83.36;101231.75;127648;1091;104516;-73
2020/12/15 05:44:11;;;;;;;28.47;11.80;;;;;;;3.41;83.66;101238.06;127747;1092;104541;-73
2020/12/15 05:46:59;;;;;;;25.37;13.20;;;;;;;3.44;83.85;101242.59;127566;1091;104465;-76
2020/12/15 05:49:30;;;;;;;27.95;13.95;;;;;;;3.47;83.42;101245.42;128887;1092;102143;-74
2020/12/15 05:52:10;;;;;;;26.83;13.00;;;;;;;3.47;83.54;101251.50;128017;1091;103047;-75
2020/12/15 05:55:04;;;;;;;26.27;12.47;;;;;;;3.45;83.64;101253.09;127614;1091;104490;-74
2020/12/15 05:57:53;;;;;;;23.17;12.13;;;;;;;3.44;82.61;101255.56;127580;1092;104461;-77
2020/12/15 06:00:28;;;;;;;25.67;12.97;;;;;;;3.46;82.96;101266.95;127634;1092;104469;-74
2020/12/15 06:02:59;;;;;;;24.87;13.33;;;;;;;3.49;83.32;101265.52;127506;1092;104454;-76
2020/12/15 06:05:29;;;;;;;26.10;13.20;;;;;;;3.50;83.52;101272.50;127580;1091;104563;-77
2020/12/15 06:08:00;;;;;;;25.23;12.17;;;;;;;3.53;83.55;101271.84;127420;1092;104542;-77
2020/12/15 06:10:29;;;;;;;24.57;12.23;;;;;;;3.53;83.24;101277.92;127492;1092;104417;-77
2020/12/15 06:13:00;;;;;;;24.30;12.33;;;;;;;3.54;83.50;101277.15;127381;1092;104458;-77
2020/12/15 06:15:30;;;;;;;25.97;12.67;;;;;;;3.56;82.92;101282.45;127487;1091;104497;-77
2020/12/15 06:18:01;;;;;;;24.50;12.37;;;;;;;3.59;83.52;101275.80;127486;1092;104438;-77
2020/12/15 06:20:35;;;;;;;25.60;12.50;;;;;;;3.60;82.82;101284.52;127562;1091;104436;-75
2020/12/15 06:23:09;;;;;;;25.17;12.10;;;;;;;3.61;82.66;101288.89;127628;1091;104474;-76
2020/12/15 06:25:39;;;;;;;25.23;11.47;;;;;;;3.63;83.22;101295.13;127674;1091;104487;-73
2020/12/15 06:28:10;;;;;;;23.40;10.63;;;;;;;3.65;83.35;101288.34;127735;1091;104458;-73
2020/12/15 06:30:42;;;;;;;23.77;10.67;;;;;;;3.70;82.74;101291.30;127625;1092;104439;-76
2020/12/15 06:33:12;;;;;;;27.07;12.40;;;;;;;3.71;82.64;101294.00;127647;1091;104849;-74
2020/12/15 06:35:47;;;;;;;23.73;11.90;;;;;;;3.73;83.27;101294.13;127584;1091;104449;-72
2020/12/15 06:38:20;;;;;;;23.27;11.23;;;;;;;3.73;82.54;101300.20;127652;1091;104446;-73
2020/12/15 06:41:03;;;;;;;24.67;11.17;;;;;;;3.76;83.11;101297.84;127276;1092;104439;-75
2020/12/15 06:43:43;;;;;;;23.83;12.30;;;;;;;3.82;83.22;101301.68;127592;1091;104548;-75
2020/12/15 06:46:12;;;;;;;25.53;12.37;;;;;;;3.86;83.28;101294.23;127545;1092;104407;-76
2020/12/15 06:48:44;;;;;;;25.07;12.40;;;;;;;3.90;82.64;101301.48;127357;1091;105997;-76
2020/12/15 06:51:13;;;;;;;26.87;12.97;;;;;;;3.92;83.13;101304.20;127522;1092;104439;-75
2020/12/15 06:53:43;;;;;;;26.57;13.07;;;;;;;3.95;82.94;101305.32;127545;1091;104442;-74
2020/12/15 06:56:16;;;;;;;25.50;12.60;;;;;;;4.03;82.73;101311.09;127549;1091;104439;-77
2020/12/15 06:58:59;;;;;;;26.53;12.87;;;;;;;4.11;82.27;101316.86;127509;1091;104433;-75
2020/12/15 07:01:29;;;;;;;25.70;13.40;;;;;;;4.14;82.75;101310.22;127605;1091;104433;-73
2020/12/15 07:04:01;;;;;;;29.20;13.93;;;;;;;4.17;82.91;101306.03;127685;1091;104584;-74
2020/12/15 07:06:31;;;;;;;32.43;15.10;;;;;;;4.21;82.53;101308.97;127740;1091;104429;-74
2020/12/15 07:09:04;;;;;;;26.97;13.97;;;;;;;4.28;82.35;101300.82;127666;1091;104455;-73
2020/12/15 07:11:33;;;;;;;27.20;13.53;;;;;;;4.32;82.63;101309.77;127653;1092;104557;-73
2020/12/15 07:14:04;;;;;;;30.37;14.00;;;;;;;4.37;82.39;101302.31;127498;1091;104407;-76
2020/12/15 07:16:33;;;;;;;28.53;13.90;;;;;;;4.40;82.89;101310.33;127353;1091;104439;-75
2020/12/15 07:19:02;;;;;;;26.83;13.90;;;;;;;4.39;82.16;101306.81;127569;1092;104477;-75
2020/12/15 07:21:32;;;;;;;29.50;13.10;;;;;;;4.36;81.91;101318.68;127478;1092;104618;-74
2020/12/15 07:24:02;;;;;;;23.43;11.33;;;;;;;4.30;81.88;101320.05;127420;1091;104512;-74
2020/12/15 07:26:32;;;;;;;26.97;13.13;;;;;;;4.30;82.92;101329.52;127382;1093;104534;-76
2020/12/15 07:29:02;;;;;;;25.23;12.47;;;;;;;4.30;82.08;101327.84;127523;1092;104433;-75
2020/12/15 07:31:32;;;;;;;24.80;12.33;;;;;;;4.31;82.11;101326.14;127518;1092;104958;-76
2020/12/15 07:34:11;;;;;;;25.27;12.87;;;;;;;4.29;82.21;101323.42;128600;1092;104586;-76
2020/12/15 07:36:43;;;;;;;30.47;14.07;;;;;;;4.30;82.91;101322.64;127280;1092;104512;-77
2020/12/15 07:39:13;;;;;;;25.87;13.13;;;;;;;4.32;82.55;101331.45;127418;1092;105133;-78
2020/12/15 07:41:43;;;;;;;27.90;12.95;;;;;;;4.30;81.90;101335.64;127467;1091;104408;-77
2020/12/15 07:44:14;;;;;;;28.07;12.73;;;;;;;4.30;82.46;101334.71;127650;1091;104997;-76
2020/12/15 07:46:47;;;;;;;27.17;13.03;;;;;;;4.29;82.74;101333.81;127565;1091;104493;-76
2020/12/15 07:49:16;;;;;;;25.67;11.73;;;;;;;4.30;82.46;101333.04;127552;1092;104538;-76
2020/12/15 07:51:45;;;;;;;24.20;11.97;;;;;;;4.31;82.38;101337.42;127537;1092;104404;-77
2020/12/15 07:54:14;;;;;;;28.30;13.37;;;;;;;4.32;82.18;101339.24;127411;1091;104433;-76
2020/12/15 07:56:46;;;;;;;28.03;13.40;;;;;;;4.29;82.29;101338.13;127353;1092;104477;-75
2020/12/15 07:59:16;;;;;;;26.60;12.30;;;;;;;4.28;82.03;101339.80;127390;1091;104618;-78
2020/12/15 08:01:48;;;;;;;27.20;13.23;;;;;;;4.29;81.92;101336.41;127253;1092;104609;-74
2020/12/15 08:04:19;;;;;;;31.23;13.10;;;;;;;4.32;82.51;101341.84;127340;1092;104410;-76
2020/12/15 08:06:52;;;;;;;25.57;13.00;;;;;;;4.35;81.86;101338.58;127418;1091;104541;-77
2020/12/15 08:09:23;;;;;;;27.33;13.60;;;;;;;4.43;82.26;101347.83;127462;1093;104417;-76
2020/12/15 08:11:55;;;;;;;30.20;14.57;;;;;;;4.50;81.96;101341.38;127363;1092;104481;-76
2020/12/15 08:14:26;;;;;;;27.77;13.60;;;;;;;4.56;82.11;101339.23;127276;1091;104557;-77
2020/12/15 08:16:56;;;;;;;28.70;13.20;;;;;;;4.58;81.70;101342.88;127479;1091;104493;-74
2020/12/15 08:19:28;;;;;;;27.83;12.40;;;;;;;4.62;81.87;101334.48;127586;1091;104403;-72
2020/12/15 08:21:59;;;;;;;24.00;10.53;;;;;;;4.68;82.00;101340.13;127548;1092;104436;-73
2020/12/15 08:24:36;;;;;;;25.47;13.07;;;;;;;4.71;81.93;101341.17;127499;1092;104560;-76
2020/12/15 08:27:13;;;;;;;28.17;13.60;;;;;;;4.74;82.00;101338.80;127520;1091;104500;-73
2020/12/15 08:29:54;;;;;;;25.25;12.15;;;;;;;4.78;81.76;101330.41;127704;1092;104408;-75
2020/12/15 08:32:29;;;;;;;28.93;13.13;;;;;;;4.82;81.00;101335.94;127726;1091;104489;-74
2020/12/15 08:35:08;;;;;;;26.87;14.10;;;;;;;4.85;81.13;101330.06;127664;1091;104407;-75
2020/12/15 08:37:42;;;;;;;28.97;13.40;;;;;;;4.93;81.33;101326.30;127571;1091;104454;-76
2020/12/15 08:40:15;;;;;;;24.80;12.63;;;;;;;5.04;81.85;101324.47;127363;1091;104541;-77
2020/12/15 08:42:47;;;;;;;30.43;13.87;;;;;;;5.13;81.33;101324.23;127362;1091;104432;-78
2020/12/15 08:45:17;;;;;;;28.37;14.33;;;;;;;5.15;81.47;101322.63;128872;1092;102387;-77
2020/12/15 08:47:49;;;;;;;26.40;12.33;;;;;;;5.16;81.36;101329.66;127555;1091;104433;-74
2020/12/15 08:50:19;;;;;;;30.20;14.20;;;;;;;5.17;81.13;101327.16;127528;1091;104640;-74
2020/12/15 08:52:50;;;;;;;26.37;12.53;;;;;;;5.19;81.04;101332.47;127454;1091;104438;-76
2020/12/15 08:55:29;;;;;;;27.60;12.80;;;;;;;5.22;80.91;101320.56;127404;1091;104449;-75
2020/12/15 08:58:01;;;;;;;27.33;14.00;;;;;;;5.27;81.01;101323.50;128916;1092;102443;-74
2020/12/15 09:00:35;;;;;;;27.70;13.47;;;;;;;5.36;81.27;101326.74;127940;1092;104494;-74
2020/12/15 09:03:11;;;;;;;29.05;13.35;;;;;;;5.35;80.73;101321.43;127522;1092;104544;-78
2020/12/15 09:05:52;;;;;;;27.50;12.40;;;;;;;5.34;81.15;101323.11;127362;1091;104446;-77
2020/12/15 09:08:24;;;;;;;24.90;12.10;;;;;;;5.33;80.54;101323.00;127416;1091;104470;-76
2020/12/15 09:10:55;;;;;;;25.80;10.83;;;;;;;5.35;80.74;101326.64;127275;1091;104430;-74
2020/12/15 09:13:25;;;;;;;27.17;12.63;;;;;;;5.38;80.79;101324.25;127447;1091;104438;-74
2020/12/15 09:16:02;;;;;;;27.80;12.87;;;;;;;5.40;80.72;101325.25;128066;1092;104678;-77
2020/12/15 09:18:33;;;;;;;26.13;13.13;;;;;;;5.42;80.85;101320.15;127313;1091;104563;-75
2020/12/15 09:21:18;;;;;;;27.40;13.40;;;;;;;5.48;80.66;101312.77;127488;1091;104411;-76
2020/12/15 09:23:50;;;;;;;22.73;10.67;;;;;;;5.52;80.41;101314.80;127936;1091;104602;-72
2020/12/15 09:26:20;;;;;;;24.93;11.30;;;;;;;5.53;80.42;101317.50;127510;1091;104497;-74
2020/12/15 09:28:53;;;;;;;25.70;12.00;;;;;;;5.52;80.29;101307.87;127546;1091;104595;-76
2020/12/15 09:31:22;;;;;;;23.40;11.30;;;;;;;5.58;80.15;101307.41;127346;1092;104708;-77
2020/12/15 09:33:54;;;;;;;28.70;14.63;;;;;;;5.61;80.39;101310.22;127290;1091;104461;-77
2020/12/15 09:36:28;;;;;;;27.97;13.57;;;;;;;5.67;80.25;101302.83;127452;1091;104458;-74
2020/12/15 09:39:01;;;;;;;26.80;12.40;;;;;;;5.68;80.18;101307.22;127594;1092;104513;-73
2020/12/15 09:41:36;;;;;;;25.10;11.73;;;;;;;5.69;80.41;101297.73;127603;1091;104411;-74
2020/12/15 09:44:05;;;;;;;25.07;11.67;;;;;;;5.70;80.26;101304.72;127171;1093;104607;-76
2020/12/15 09:46:38;;;;;;;27.90;11.80;;;;;;;5.66;79.84;101300.12;127500;1091;104429;-76
2020/12/15 09:49:09;;;;;;;22.93;11.60;;;;;;;5.63;80.11;101308.61;127432;1092;104545;-76
2020/12/15 09:51:40;;;;;;;25.87;12.83;;;;;;;5.63;79.85;101302.52;127453;1091;104497;-77
2020/12/15 09:54:11;;;;;;;26.60;12.20;;;;;;;5.67;80.40;101300.23;127384;1091;104433;-79
2020/12/15 09:56:44;;;;;;;25.17;11.57;;;;;;;5.68;79.75;101296.80;127564;1092;104433;-75
2020/12/15 09:59:16;;;;;;;24.47;11.30;;;;;;;5.70;80.18;101290.02;127626;1091;104500;-76
2020/12/15 10:01:48;;;;;;;26.70;13.23;;;;;;;5.79;80.13;101291.44;127587;1091;104509;-76
2020/12/15 10:04:17;;;;;;;25.27;11.87;;;;;;;5.88;79.95;101289.45;127542;1091;104446;-77
2020/12/15 10:06:48;;;;;;;26.17;13.93;;;;;;;5.92;80.00;101291.44;127494;1091;104502;-77
2020/12/15 10:09:18;;;;;;;27.27;13.60;;;;;;;5.99;79.84;101290.20;127528;1092;104497;-76
2020/12/15 10:11:52;;;;;;;28.13;13.77;;;;;;;6.00;79.99;101285.09;127508;1091;104596;-75
2020/12/15 10:14:24;;;;;;;29.90;12.60;;;;;;;6.03;80.22;101276.55;127390;1092;104612;-76
2020/12/15 10:16:53;;;;;;;25.80;12.97;;;;;;;6.08;80.10;101280.39;127477;1092;104408;-78
2020/12/15 10:19:26;;;;;;;30.70;14.33;;;;;;;6.13;79.97;101272.88;127443;1092;104561;-75
2020/12/15 10:21:56;;;;;;;25.77;13.00;;;;;;;6.13;79.82;101281.59;127404;1091;104599;-77
2020/12/15 10:24:25;;;;;;;28.23;13.90;;;;;;;6.10;79.87;101281.39;127522;1091;104602;-75
2020/12/15 10:26:54;;;;;;;26.40;12.80;;;;;;;6.16;80.13;101286.11;127436;1091;104566;-76
2020/12/15 10:29:29;;;;;;;25.20;11.93;;;;;;;6.16;79.62;101276.58;127329;1091;104561;-75
2020/12/15 10:32:01;;;;;;;21.33;10.53;;;;;;;6.12;79.40;101287.59;127206;1092;104436;-74
2020/12/15 10:34:30;;;;;;;25.57;12.13;;;;;;;6.02;79.43;101286.09;127507;1091;105262;-78
2020/12/15 10:37:00;;;;;;;21.90;10.73;;;;;;;5.96;79.40;101288.25;127051;1093;104423;-76
2020/12/15 10:39:29;;;;;;;23.33;11.17;;;;;;;5.93;79.41;101281.13;127330;1092;104436;-74
2020/12/15 10:42:00;;;;;;;26.33;11.07;;;;;;;5.97;79.41;101281.36;127222;1091;104503;-77
2020/12/15 10:44:30;;;;;;;24.40;10.33;;;;;;;6.01;79.63;101272.96;127445;1091;104404;-77
2020/12/15 10:47:01;;;;;;;30.30;13.20;;;;;;;6.06;79.54;101281.97;127307;1091;104405;-77
2020/12/15 10:49:30;;;;;;;26.13;11.57;;;;;;;6.12;79.49;101277.17;127430;1091;104493;-76
2020/12/15 10:52:01;;;;;;;25.93;11.33;;;;;;;6.13;79.37;101276.38;127462;1091;104849;-77
2020/12/15 10:54:31;;;;;;;29.30;12.87;;;;;;;6.13;79.52;101283.30;127523;1091;104410;-76
2020/12/15 10:57:00;;;;;;;23.27;11.13;;;;;;;6.07;78.95;101270.76;127405;1091;104432;-77
2020/12/15 10:59:29;;;;;;;24.53;11.83;;;;;;;6.07;79.37;101271.65;127278;1092;104538;-77
2020/12/15 11:01:58;;;;;;;26.03;13.27;;;;;;;6.11;79.18;101276.28;127197;1091;104465;-80
2020/12/15 11:04:27;;;;;;;27.47;12.00;;;;;;;6.12;79.14;101279.77;127308;1092;104522;-75
2020/12/15 11:06:56;;;;;;;26.33;12.60;;;;;;;6.15;79.22;101279.97;127355;1092;104436;-78
2020/12/15 11:09:25;;;;;;;29.63;12.20;;;;;;;6.16;79.61;101281.80;127280;1093;104555;-78
2020/12/15 11:11:54;;;;;;;24.50;11.47;;;;;;;6.08;78.83;101276.07;127277;1092;104551;-77
2020/12/15 11:14:23;;;;;;;26.00;10.60;;;;;;;6.04;79.06;101274.05;127417;1091;104501;-78
2020/12/15 11:16:52;;;;;;;20.87;9.93;;;;;;;5.99;78.86;101277.17;127344;1092;104516;-78
2020/12/15 11:19:21;;;;;;;24.70;11.90;;;;;;;5.91;78.83;101277.52;127201;1092;104493;-79
2020/12/15 11:21:52;;;;;;;24.53;10.77;;;;;;;5.84;78.78;101272.69;127162;1091;104449;-77
2020/12/15 11:24:25;;;;;;;24.07;11.30;;;;;;;5.83;78.90;101276.11;127267;1092;104445;-76
2020/12/15 11:26:54;;;;;;;22.90;10.77;;;;;;;5.79;78.98;101283.62;127493;1092;104446;-77